Historique des mesures à Cassis (13260), France
Quotidien Résumé Mai 7, 2021 Unités:  Métrique    US   Métrique/US
Quotidien Hebdomadaire Mensuel Annuel
  Maximum: Minimum: Moyenne:
Température: 17.1 °C 8.4 °C 12.3 °C
Point de rosée: 5.3 °C -0.1 °C 2.9 °C
Humidité: 61% 41% 53%
Vitesse du vent: 25.6km/h 0km/h 11.3km/h
Rafales: 91.8km/h - -
Vent- - West
Pression: 1016.3 hPa 1009.4 hPa -
Précipitations: 0.0 mm    
Historical Graphs
 
 
Mesures pour : Mai 7, 2021
Heure Temperature Point de rosée Pression Vent Vitesse du vent Rafales Humidité Pluie (par heure)
00:10 10.5 °C 3.1 °C 1016.3 hPa North 6.8 km/h 19.1 km/h 60% 0.0 mm
01:11 10.1 °C 2.2 °C 1015.9 hPa NNW 12.2 km/h 15.1 km/h 58% 0.0 mm
02:10 9.9 °C 1.5 °C 1015.7 hPa NNE 7.2 km/h 14.4 km/h 56% 0.0 mm
03:11 9.7 °C 1.1 °C 1014.9 hPa NW 11.5 km/h 25.9 km/h 55% 0.0 mm
04:10 9.5 °C 1.4 °C 1014.4 hPa NNW 25.2 km/h 91.8 km/h 57% 0.0 mm
05:11 8.4 °C 0.3 °C 1013.9 hPa NW 7.2 km/h 28.4 km/h 57% 0.0 mm
06:10 9.6 °C -0.1 °C 1013.6 hPa WNW 9.7 km/h 15.8 km/h 51% 0.0 mm
07:11 9.9 °C 0 °C 1012.8 hPa WNW 6.5 km/h 15.8 km/h 50% 0.0 mm
08:10 9.8 °C 0.2 °C 1013.6 hPa NW 25.6 km/h 30.2 km/h 51% 0.0 mm
09:11 10.5 °C 1.1 °C 1013.7 hPa NW 4.3 km/h 17.3 km/h 52% 0.0 mm
10:10 11.7 °C 1.3 °C 1013.2 hPa North 13.3 km/h 16.9 km/h 49% 0.0 mm
11:11 13.8 °C 2.6 °C 1012.8 hPa NNW 12.2 km/h 25.6 km/h 47% 0.0 mm
12:10 15.2 °C 3 °C 1012.1 hPa NW 5.8 km/h 21.2 km/h 44% 0.0 mm
13:11 17.1 °C 3.7 °C 1011.1 hPa NNW 15.5 km/h 21.6 km/h 41% 0.0 mm
14:10 16.4 °C 4.4 °C 1010.7 hPa West 17.3 km/h 25.2 km/h 45% 0.0 mm
15:11 16.2 °C 4.2 °C 1010.2 hPa Calm   10.1 km/h 45% 0.0 mm
16:10 15.4 °C 4.4 °C 1010.3 hPa NW 2.9 km/h 11.9 km/h 48% 0.0 mm
17:11 14.5 °C 5.3 °C 1009.7 hPa WNW 16.9 km/h 31.7 km/h 54% 0.0 mm
18:10 13.2 °C 4.8 °C 1009.4 hPa WNW 16.9 km/h 24.5 km/h 57% 0.0 mm
19:11 12.9 °C 5.1 °C 1010.6 hPa NW 8.6 km/h 11.9 km/h 59% 0.0 mm
20:10 12.4 °C 5.1 °C 1010.0 hPa NNW 10.1 km/h 17.6 km/h 61% 0.0 mm
21:11 12.6 °C 5 °C 1010.3 hPa NW 14.4 km/h 17.3 km/h 60% 0.0 mm
22:10 13.1 °C 5.2 °C 1010.3 hPa North 11.9 km/h 14.4 km/h 59% 0.0 mm
23:11 13.8 °C 4.6 °C 1010.1 hPa NW 10.1 km/h 15.5 km/h 54% 0.0 mm
Observations météo à CASSIS
WU-History script by Weather Underground - 2 mb